sensor_id;sensor_type;location;lat;lon;timestamp;P1;durP1;ratioP1;P2;durP2;ratioP2
13969;SDS011;7057;49.984;8.404;2022-07-22T00:01:59;7.03;;;5.90;;
13969;SDS011;7057;49.984;8.404;2022-07-22T00:04:26;6.28;;;5.65;;
13969;SDS011;7057;49.984;8.404;2022-07-22T00:06:53;7.07;;;6.10;;
13969;SDS011;7057;49.984;8.404;2022-07-22T00:09:22;7.85;;;6.07;;
13969;SDS011;7057;49.984;8.404;2022-07-22T00:11:49;6.22;;;5.60;;
13969;SDS011;7057;49.984;8.404;2022-07-22T00:14:16;7.82;;;6.88;;
13969;SDS011;7057;49.984;8.404;2022-07-22T00:16:43;7.27;;;6.50;;
13969;SDS011;7057;49.984;8.404;2022-07-22T00:19:10;7.50;;;6.57;;
13969;SDS011;7057;49.984;8.404;2022-07-22T00:21:38;7.97;;;6.20;;
13969;SDS011;7057;49.984;8.404;2022-07-22T00:24:05;8.02;;;6.85;;
13969;SDS011;7057;49.984;8.404;2022-07-22T00:26:35;9.20;;;6.90;;
13969;SDS011;7057;49.984;8.404;2022-07-22T00:29:02;6.72;;;5.90;;
13969;SDS011;7057;49.984;8.404;2022-07-22T00:31:29;7.78;;;6.40;;
13969;SDS011;7057;49.984;8.404;2022-07-22T00:33:58;8.75;;;6.63;;
13969;SDS011;7057;49.984;8.404;2022-07-22T00:36:26;7.50;;;6.05;;
13969;SDS011;7057;49.984;8.404;2022-07-22T00:38:53;6.85;;;6.15;;
13969;SDS011;7057;49.984;8.404;2022-07-22T00:41:20;8.20;;;6.43;;
13969;SDS011;7057;49.984;8.404;2022-07-22T00:43:50;8.20;;;6.70;;
13969;SDS011;7057;49.984;8.404;2022-07-22T00:46:18;8.10;;;6.90;;
13969;SDS011;7057;49.984;8.404;2022-07-22T00:48:46;8.68;;;6.85;;
13969;SDS011;7057;49.984;8.404;2022-07-22T00:51:13;7.85;;;6.88;;
13969;SDS011;7057;49.984;8.404;2022-07-22T00:53:40;9.00;;;6.13;;
13969;SDS011;7057;49.984;8.404;2022-07-22T00:56:07;7.53;;;6.22;;
13969;SDS011;7057;49.984;8.404;2022-07-22T00:58:35;8.13;;;6.38;;
13969;SDS011;7057;49.984;8.404;2022-07-22T01:01:04;8.70;;;7.00;;
13969;SDS011;7057;49.984;8.404;2022-07-22T01:03:31;8.18;;;6.47;;
13969;SDS011;7057;49.984;8.404;2022-07-22T01:05:58;8.32;;;7.00;;
13969;SDS011;7057;49.984;8.404;2022-07-22T01:08:26;8.63;;;7.00;;
13969;SDS011;7057;49.984;8.404;2022-07-22T01:10:53;7.90;;;6.87;;
13969;SDS011;7057;49.984;8.404;2022-07-22T01:13:20;9.82;;;7.35;;
13969;SDS011;7057;49.984;8.404;2022-07-22T01:15:47;9.25;;;7.15;;
13969;SDS011;7057;49.984;8.404;2022-07-22T01:18:16;9.95;;;7.25;;
13969;SDS011;7057;49.984;8.404;2022-07-22T01:20:44;8.82;;;7.00;;
13969;SDS011;7057;49.984;8.404;2022-07-22T01:23:11;10.27;;;6.97;;
13969;SDS011;7057;49.984;8.404;2022-07-22T01:25:38;8.65;;;7.40;;
13969;SDS011;7057;49.984;8.404;2022-07-22T01:28:05;8.88;;;7.35;;
13969;SDS011;7057;49.984;8.404;2022-07-22T01:30:32;8.63;;;7.65;;
13969;SDS011;7057;49.984;8.404;2022-07-22T01:33:00;8.50;;;7.40;;
13969;SDS011;7057;49.984;8.404;2022-07-22T01:35:27;8.98;;;7.47;;
13969;SDS011;7057;49.984;8.404;2022-07-22T01:37:55;9.30;;;7.30;;
13969;SDS011;7057;49.984;8.404;2022-07-22T01:40:23;7.95;;;6.88;;
13969;SDS011;7057;49.984;8.404;2022-07-22T01:42:50;10.45;;;7.68;;
13969;SDS011;7057;49.984;8.404;2022-07-22T01:45:18;8.45;;;7.10;;
13969;SDS011;7057;49.984;8.404;2022-07-22T01:47:45;9.35;;;7.38;;
13969;SDS011;7057;49.984;8.404;2022-07-22T01:50:12;8.73;;;7.43;;
13969;SDS011;7057;49.984;8.404;2022-07-22T01:52:39;9.27;;;7.28;;
13969;SDS011;7057;49.984;8.404;2022-07-22T01:55:08;9.43;;;7.72;;
13969;SDS011;7057;49.984;8.404;2022-07-22T01:57:36;9.38;;;7.40;;
13969;SDS011;7057;49.984;8.404;2022-07-22T02:00:04;9.50;;;7.50;;
13969;SDS011;7057;49.984;8.404;2022-07-22T02:02:32;10.43;;;7.18;;
13969;SDS011;7057;49.984;8.404;2022-07-22T02:04:59;8.23;;;7.43;;
13969;SDS011;7057;49.984;8.404;2022-07-22T02:07:27;8.20;;;6.70;;
13969;SDS011;7057;49.984;8.404;2022-07-22T02:09:54;10.13;;;7.60;;
13969;SDS011;7057;49.984;8.404;2022-07-22T02:12:22;8.88;;;7.97;;
13969;SDS011;7057;49.984;8.404;2022-07-22T02:14:50;8.20;;;6.97;;
13969;SDS011;7057;49.984;8.404;2022-07-22T02:17:17;8.38;;;7.22;;
13969;SDS011;7057;49.984;8.404;2022-07-22T02:19:44;9.75;;;7.78;;
13969;SDS011;7057;49.984;8.404;2022-07-22T02:22:11;9.70;;;7.75;;
13969;SDS011;7057;49.984;8.404;2022-07-22T02:24:38;8.77;;;7.88;;
13969;SDS011;7057;49.984;8.404;2022-07-22T02:27:06;9.07;;;8.15;;
13969;SDS011;7057;49.984;8.404;2022-07-22T02:29:34;10.00;;;8.10;;
13969;SDS011;7057;49.984;8.404;2022-07-22T02:32:01;9.10;;;7.93;;
13969;SDS011;7057;49.984;8.404;2022-07-22T02:34:29;8.95;;;7.65;;
13969;SDS011;7057;49.984;8.404;2022-07-22T02:36:56;8.40;;;7.47;;
13969;SDS011;7057;49.984;8.404;2022-07-22T02:39:23;8.40;;;7.30;;
13969;SDS011;7057;49.984;8.404;2022-07-22T02:41:50;7.72;;;6.88;;
13969;SDS011;7057;49.984;8.404;2022-07-22T02:44:17;8.57;;;6.80;;
13969;SDS011;7057;49.984;8.404;2022-07-22T02:46:46;8.85;;;7.20;;
13969;SDS011;7057;49.984;8.404;2022-07-22T02:49:13;8.20;;;7.40;;
13969;SDS011;7057;49.984;8.404;2022-07-22T02:51:41;8.23;;;7.43;;
13969;SDS011;7057;49.984;8.404;2022-07-22T02:54:08;9.38;;;7.40;;
13969;SDS011;7057;49.984;8.404;2022-07-22T02:56:35;8.02;;;7.20;;
13969;SDS011;7057;49.984;8.404;2022-07-22T02:59:02;8.45;;;7.35;;
13969;SDS011;7057;49.984;8.404;2022-07-22T03:01:29;8.35;;;7.15;;
13969;SDS011;7057;49.984;8.404;2022-07-22T03:03:57;8.30;;;6.97;;
13969;SDS011;7057;49.984;8.404;2022-07-22T03:06:25;8.83;;;6.97;;
13969;SDS011;7057;49.984;8.404;2022-07-22T03:08:52;7.88;;;7.07;;
13969;SDS011;7057;49.984;8.404;2022-07-22T03:11:19;9.85;;;7.60;;
13969;SDS011;7057;49.984;8.404;2022-07-22T03:13:46;7.90;;;7.05;;
13969;SDS011;7057;49.984;8.404;2022-07-22T03:16:13;8.25;;;7.30;;
13969;SDS011;7057;49.984;8.404;2022-07-22T03:18:40;8.90;;;7.60;;
13969;SDS011;7057;49.984;8.404;2022-07-22T03:21:09;8.77;;;7.65;;
13969;SDS011;7057;49.984;8.404;2022-07-22T03:23:36;9.38;;;7.38;;
13969;SDS011;7057;49.984;8.404;2022-07-22T03:26:03;9.30;;;7.40;;
13969;SDS011;7057;49.984;8.404;2022-07-22T03:28:30;9.73;;;7.35;;
13969;SDS011;7057;49.984;8.404;2022-07-22T03:30:57;8.38;;;6.97;;
13969;SDS011;7057;49.984;8.404;2022-07-22T03:33:24;8.77;;;6.85;;
13969;SDS011;7057;49.984;8.404;2022-07-22T03:35:52;8.45;;;6.80;;
13969;SDS011;7057;49.984;8.404;2022-07-22T03:38:20;9.32;;;7.70;;
13969;SDS011;7057;49.984;8.404;2022-07-22T03:40:48;9.65;;;7.47;;
13969;SDS011;7057;49.984;8.404;2022-07-22T03:43:15;8.50;;;7.60;;
13969;SDS011;7057;49.984;8.404;2022-07-22T03:45:42;8.48;;;7.65;;
13969;SDS011;7057;49.984;8.404;2022-07-22T03:48:10;7.73;;;6.90;;
13969;SDS011;7057;49.984;8.404;2022-07-22T03:50:37;8.55;;;7.15;;
13969;SDS011;7057;49.984;8.404;2022-07-22T03:53:05;8.98;;;6.72;;
13969;SDS011;7057;49.984;8.404;2022-07-22T03:55:33;7.05;;;6.35;;
13969;SDS011;7057;49.984;8.404;2022-07-22T03:58:00;9.63;;;6.47;;
13969;SDS011;7057;49.984;8.404;2022-07-22T04:00:27;8.15;;;6.75;;
13969;SDS011;7057;49.984;8.404;2022-07-22T04:02:55;7.63;;;6.57;;
13969;SDS011;7057;49.984;8.404;2022-07-22T04:05:22;7.43;;;6.22;;
13969;SDS011;7057;49.984;8.404;2022-07-22T04:07:49;8.73;;;6.30;;
13969;SDS011;7057;49.984;8.404;2022-07-22T04:10:16;8.55;;;6.70;;
13969;SDS011;7057;49.984;8.404;2022-07-22T04:12:45;7.57;;;6.78;;
13969;SDS011;7057;49.984;8.404;2022-07-22T04:15:12;7.18;;;6.13;;
13969;SDS011;7057;49.984;8.404;2022-07-22T04:17:39;7.35;;;6.65;;
13969;SDS011;7057;49.984;8.404;2022-07-22T04:20:06;7.65;;;6.82;;
13969;SDS011;7057;49.984;8.404;2022-07-22T04:22:34;7.78;;;6.38;;
13969;SDS011;7057;49.984;8.404;2022-07-22T04:25:01;7.47;;;6.75;;
13969;SDS011;7057;49.984;8.404;2022-07-22T04:27:29;7.22;;;6.43;;
13969;SDS011;7057;49.984;8.404;2022-07-22T04:29:57;8.27;;;6.50;;
13969;SDS011;7057;49.984;8.404;2022-07-22T04:32:24;8.05;;;6.72;;
13969;SDS011;7057;49.984;8.404;2022-07-22T04:34:51;8.13;;;7.25;;
13969;SDS011;7057;49.984;8.404;2022-07-22T04:37:18;8.23;;;6.65;;
13969;SDS011;7057;49.984;8.404;2022-07-22T04:39:46;9.00;;;7.18;;
13969;SDS011;7057;49.984;8.404;2022-07-22T04:42:13;8.55;;;7.30;;
13969;SDS011;7057;49.984;8.404;2022-07-22T04:44:40;9.82;;;7.50;;
13969;SDS011;7057;49.984;8.404;2022-07-22T04:47:11;9.80;;;7.53;;
13969;SDS011;7057;49.984;8.404;2022-07-22T04:49:38;7.70;;;6.85;;
13969;SDS011;7057;49.984;8.404;2022-07-22T04:52:05;9.13;;;7.40;;
13969;SDS011;7057;49.984;8.404;2022-07-22T04:54:32;9.90;;;8.27;;
13969;SDS011;7057;49.984;8.404;2022-07-22T04:56:59;11.13;;;9.07;;
13969;SDS011;7057;49.984;8.404;2022-07-22T04:59:26;11.20;;;8.73;;
13969;SDS011;7057;49.984;8.404;2022-07-22T05:01:54;11.43;;;7.97;;
13969;SDS011;7057;49.984;8.404;2022-07-22T05:04:22;10.80;;;7.60;;
13969;SDS011;7057;49.984;8.404;2022-07-22T05:06:49;8.52;;;7.60;;
13969;SDS011;7057;49.984;8.404;2022-07-22T05:09:16;9.40;;;7.82;;
13969;SDS011;7057;49.984;8.404;2022-07-22T05:11:43;9.33;;;7.43;;
13969;SDS011;7057;49.984;8.404;2022-07-22T05:14:10;8.95;;;7.20;;
13969;SDS011;7057;49.984;8.404;2022-07-22T05:16:38;9.00;;;7.90;;
13969;SDS011;7057;49.984;8.404;2022-07-22T05:19:05;8.98;;;7.32;;
13969;SDS011;7057;49.984;8.404;2022-07-22T05:21:33;11.10;;;7.30;;
13969;SDS011;7057;49.984;8.404;2022-07-22T05:24:00;9.07;;;7.68;;
13969;SDS011;7057;49.984;8.404;2022-07-22T05:26:29;10.68;;;8.10;;
13969;SDS011;7057;49.984;8.404;2022-07-22T05:28:58;10.27;;;8.05;;
13969;SDS011;7057;49.984;8.404;2022-07-22T05:31:25;8.40;;;7.50;;
13969;SDS011;7057;49.984;8.404;2022-07-22T05:33:52;8.98;;;7.75;;
13969;SDS011;7057;49.984;8.404;2022-07-22T05:36:19;7.90;;;7.07;;
13969;SDS011;7057;49.984;8.404;2022-07-22T05:38:47;8.60;;;7.50;;
13969;SDS011;7057;49.984;8.404;2022-07-22T05:41:15;7.83;;;7.03;;
13969;SDS011;7057;49.984;8.404;2022-07-22T05:43:42;8.68;;;6.88;;
13969;SDS011;7057;49.984;8.404;2022-07-22T05:46:09;7.43;;;6.72;;
13969;SDS011;7057;49.984;8.404;2022-07-22T05:48:36;8.05;;;6.35;;
13969;SDS011;7057;49.984;8.404;2022-07-22T05:51:03;6.95;;;6.18;;
13969;SDS011;7057;49.984;8.404;2022-07-22T05:53:37;8.07;;;6.50;;
13969;SDS011;7057;49.984;8.404;2022-07-22T05:56:06;8.13;;;6.20;;
13969;SDS011;7057;49.984;8.404;2022-07-22T05:58:34;6.85;;;6.15;;
13969;SDS011;7057;49.984;8.404;2022-07-22T06:01:01;6.95;;;6.30;;
13969;SDS011;7057;49.984;8.404;2022-07-22T06:03:28;7.35;;;6.65;;
13969;SDS011;7057;49.984;8.404;2022-07-22T06:05:55;8.93;;;6.72;;
13969;SDS011;7057;49.984;8.404;2022-07-22T06:08:22;6.97;;;6.10;;
13969;SDS011;7057;49.984;8.404;2022-07-22T06:10:49;6.65;;;6.00;;
13969;SDS011;7057;49.984;8.404;2022-07-22T06:13:18;7.82;;;6.03;;
13969;SDS011;7057;49.984;8.404;2022-07-22T06:15:45;6.85;;;5.70;;
13969;SDS011;7057;49.984;8.404;2022-07-22T06:18:12;6.68;;;6.00;;
13969;SDS011;7057;49.984;8.404;2022-07-22T06:20:39;6.82;;;5.80;;
13969;SDS011;7057;49.984;8.404;2022-07-22T06:23:07;7.97;;;5.80;;
13969;SDS011;7057;49.984;8.404;2022-07-22T06:25:34;8.98;;;6.57;;
13969;SDS011;7057;49.984;8.404;2022-07-22T06:28:01;7.22;;;6.00;;
13969;SDS011;7057;49.984;8.404;2022-07-22T06:30:29;7.90;;;6.55;;
13969;SDS011;7057;49.984;8.404;2022-07-22T06:32:57;8.53;;;6.90;;
13969;SDS011;7057;49.984;8.404;2022-07-22T06:35:24;8.23;;;7.03;;
13969;SDS011;7057;49.984;8.404;2022-07-22T06:37:51;8.57;;;7.50;;
13969;SDS011;7057;49.984;8.404;2022-07-22T06:40:18;8.65;;;7.75;;
13969;SDS011;7057;49.984;8.404;2022-07-22T06:42:45;8.82;;;7.57;;
13969;SDS011;7057;49.984;8.404;2022-07-22T06:45:13;9.98;;;7.82;;
13969;SDS011;7057;49.984;8.404;2022-07-22T06:47:41;9.23;;;6.95;;
13969;SDS011;7057;49.984;8.404;2022-07-22T06:50:08;8.27;;;7.38;;
13969;SDS011;7057;49.984;8.404;2022-07-22T06:52:37;8.73;;;7.43;;
13969;SDS011;7057;49.984;8.404;2022-07-22T06:55:06;8.85;;;7.38;;
13969;SDS011;7057;49.984;8.404;2022-07-22T06:57:34;8.32;;;7.28;;
13969;SDS011;7057;49.984;8.404;2022-07-22T07:00:01;7.82;;;7.03;;
13969;SDS011;7057;49.984;8.404;2022-07-22T07:02:29;8.35;;;7.57;;
13969;SDS011;7057;49.984;8.404;2022-07-22T07:04:58;8.30;;;7.22;;
13969;SDS011;7057;49.984;8.404;2022-07-22T07:07:25;8.32;;;7.40;;
13969;SDS011;7057;49.984;8.404;2022-07-22T07:09:52;8.03;;;6.43;;
13969;SDS011;7057;49.984;8.404;2022-07-22T07:12:19;7.57;;;6.20;;
13969;SDS011;7057;49.984;8.404;2022-07-22T07:14:47;7.78;;;6.65;;
13969;SDS011;7057;49.984;8.404;2022-07-22T07:17:14;8.77;;;7.50;;
13969;SDS011;7057;49.984;8.404;2022-07-22T07:19:41;8.55;;;7.30;;
13969;SDS011;7057;49.984;8.404;2022-07-22T07:22:10;8.70;;;6.93;;
13969;SDS011;7057;49.984;8.404;2022-07-22T07:24:37;9.88;;;7.38;;
13969;SDS011;7057;49.984;8.404;2022-07-22T07:27:04;8.43;;;6.70;;
13969;SDS011;7057;49.984;8.404;2022-07-22T07:29:32;10.02;;;7.72;;
13969;SDS011;7057;49.984;8.404;2022-07-22T07:31:59;8.57;;;7.13;;
13969;SDS011;7057;49.984;8.404;2022-07-22T07:34:26;8.57;;;7.20;;
13969;SDS011;7057;49.984;8.404;2022-07-22T07:36:53;7.43;;;6.70;;
13969;SDS011;7057;49.984;8.404;2022-07-22T07:39:22;8.13;;;7.28;;
13969;SDS011;7057;49.984;8.404;2022-07-22T07:41:49;7.40;;;6.68;;
13969;SDS011;7057;49.984;8.404;2022-07-22T07:44:18;7.65;;;6.85;;
13969;SDS011;7057;49.984;8.404;2022-07-22T07:46:45;7.43;;;6.70;;
13969;SDS011;7057;49.984;8.404;2022-07-22T07:49:12;8.18;;;6.47;;
13969;SDS011;7057;49.984;8.404;2022-07-22T07:51:39;7.32;;;6.50;;
13969;SDS011;7057;49.984;8.404;2022-07-22T07:54:06;9.07;;;7.63;;
13969;SDS011;7057;49.984;8.404;2022-07-22T07:56:35;7.65;;;6.85;;
13969;SDS011;7057;49.984;8.404;2022-07-22T07:59:02;7.10;;;6.40;;
13969;SDS011;7057;49.984;8.404;2022-07-22T08:01:29;7.05;;;6.35;;
13969;SDS011;7057;49.984;8.404;2022-07-22T08:03:56;7.03;;;6.32;;
13969;SDS011;7057;49.984;8.404;2022-07-22T08:06:23;8.20;;;7.40;;
13969;SDS011;7057;49.984;8.404;2022-07-22T08:08:51;8.25;;;7.20;;
13969;SDS011;7057;49.984;8.404;2022-07-22T08:11:18;6.90;;;6.20;;
13969;SDS011;7057;49.984;8.404;2022-07-22T08:13:47;7.33;;;6.33;;
13969;SDS011;7057;49.984;8.404;2022-07-22T08:16:14;7.55;;;6.72;;
13969;SDS011;7057;49.984;8.404;2022-07-22T08:18:41;7.13;;;6.43;;
13969;SDS011;7057;49.984;8.404;2022-07-22T08:21:08;6.70;;;6.05;;
13969;SDS011;7057;49.984;8.404;2022-07-22T08:23:36;7.30;;;6.18;;
13969;SDS011;7057;49.984;8.404;2022-07-22T08:26:03;6.40;;;5.80;;
13969;SDS011;7057;49.984;8.404;2022-07-22T08:28:30;7.07;;;6.20;;
13969;SDS011;7057;49.984;8.404;2022-07-22T08:30:58;7.43;;;6.63;;
13969;SDS011;7057;49.984;8.404;2022-07-22T08:33:26;6.93;;;6.22;;
13969;SDS011;7057;49.984;8.404;2022-07-22T08:35:53;7.13;;;6.43;;
13969;SDS011;7057;49.984;8.404;2022-07-22T08:38:20;10.05;;;6.70;;
13969;SDS011;7057;49.984;8.404;2022-07-22T08:40:47;6.47;;;5.85;;
13969;SDS011;7057;49.984;8.404;2022-07-22T08:43:15;6.97;;;6.28;;
13969;SDS011;7057;49.984;8.404;2022-07-22T08:45:42;7.57;;;6.20;;
13969;SDS011;7057;49.984;8.404;2022-07-22T08:48:11;9.97;;;6.37;;
13969;SDS011;7057;49.984;8.404;2022-07-22T08:50:38;7.37;;;5.80;;
13969;SDS011;7057;49.984;8.404;2022-07-22T08:53:07;7.43;;;6.20;;
13969;SDS011;7057;49.984;8.404;2022-07-22T08:55:39;6.83;;;6.07;;
13969;SDS011;7057;49.984;8.404;2022-07-22T08:58:07;7.93;;;5.70;;
13969;SDS011;7057;49.984;8.404;2022-07-22T09:00:34;7.67;;;6.30;;
13969;SDS011;7057;49.984;8.404;2022-07-22T09:03:03;6.07;;;5.47;;
13969;SDS011;7057;49.984;8.404;2022-07-22T09:05:46;6.23;;;5.33;;
13969;SDS011;7057;49.984;8.404;2022-07-22T09:08:13;6.00;;;5.40;;
13969;SDS011;7057;49.984;8.404;2022-07-22T09:10:40;5.70;;;5.10;;
13969;SDS011;7057;49.984;8.404;2022-07-22T09:13:08;7.13;;;5.50;;
13969;SDS011;7057;49.984;8.404;2022-07-22T09:15:37;7.13;;;5.60;;
13969;SDS011;7057;49.984;8.404;2022-07-22T09:18:06;6.43;;;5.70;;
13969;SDS011;7057;49.984;8.404;2022-07-22T09:20:36;6.57;;;5.33;;
13969;SDS011;7057;49.984;8.404;2022-07-22T09:23:08;6.03;;;5.43;;
13969;SDS011;7057;49.984;8.404;2022-07-22T09:25:37;6.73;;;5.43;;
13969;SDS011;7057;49.984;8.404;2022-07-22T09:28:09;6.00;;;5.40;;
13969;SDS011;7057;49.984;8.404;2022-07-22T09:30:39;5.60;;;4.97;;
13969;SDS011;7057;49.984;8.404;2022-07-22T09:33:07;6.13;;;5.23;;
13969;SDS011;7057;49.984;8.404;2022-07-22T09:35:36;5.80;;;5.20;;
13969;SDS011;7057;49.984;8.404;2022-07-22T09:38:05;6.23;;;5.63;;
13969;SDS011;7057;49.984;8.404;2022-07-22T09:40:34;5.97;;;5.33;;
13969;SDS011;7057;49.984;8.404;2022-07-22T09:43:03;6.10;;;5.17;;
13969;SDS011;7057;49.984;8.404;2022-07-22T09:45:32;6.40;;;5.77;;
13969;SDS011;7057;49.984;8.404;2022-07-22T09:48:00;6.73;;;5.57;;
13969;SDS011;7057;49.984;8.404;2022-07-22T09:50:29;5.97;;;5.37;;
13969;SDS011;7057;49.984;8.404;2022-07-22T09:52:58;6.80;;;5.77;;
13969;SDS011;7057;49.984;8.404;2022-07-22T09:55:27;7.40;;;5.63;;
13969;SDS011;7057;49.984;8.404;2022-07-22T09:57:56;6.50;;;5.73;;
13969;SDS011;7057;49.984;8.404;2022-07-22T10:00:24;5.47;;;4.97;;
13969;SDS011;7057;49.984;8.404;2022-07-22T10:02:54;6.60;;;5.40;;
13969;SDS011;7057;49.984;8.404;2022-07-22T10:05:23;6.73;;;5.20;;
13969;SDS011;7057;49.984;8.404;2022-07-22T10:07:51;6.63;;;4.97;;
13969;SDS011;7057;49.984;8.404;2022-07-22T10:10:22;5.47;;;4.97;;
13969;SDS011;7057;49.984;8.404;2022-07-22T10:12:51;5.77;;;5.03;;
13969;SDS011;7057;49.984;8.404;2022-07-22T10:15:19;5.47;;;4.77;;
13969;SDS011;7057;49.984;8.404;2022-07-22T10:17:48;5.40;;;4.63;;
13969;SDS011;7057;49.984;8.404;2022-07-22T10:20:17;5.20;;;4.70;;
13969;SDS011;7057;49.984;8.404;2022-07-22T10:25:32;6.93;;;4.90;;
13969;SDS011;7057;49.984;8.404;2022-07-22T10:28:20;5.23;;;4.70;;
13969;SDS011;7057;49.984;8.404;2022-07-22T10:30:47;4.90;;;4.43;;
13969;SDS011;7057;49.984;8.404;2022-07-22T10:33:15;5.10;;;4.60;;
13969;SDS011;7057;49.984;8.404;2022-07-22T10:35:55;4.67;;;4.27;;
13969;SDS011;7057;49.984;8.404;2022-07-22T10:38:24;5.23;;;4.63;;
13969;SDS011;7057;49.984;8.404;2022-07-22T10:40:54;5.43;;;4.93;;
13969;SDS011;7057;49.984;8.404;2022-07-22T10:43:23;6.03;;;4.60;;
13969;SDS011;7057;49.984;8.404;2022-07-22T10:45:53;4.67;;;4.27;;
13969;SDS011;7057;49.984;8.404;2022-07-22T10:48:22;6.00;;;5.10;;
13969;SDS011;7057;49.984;8.404;2022-07-22T10:51:04;6.50;;;4.70;;
13969;SDS011;7057;49.984;8.404;2022-07-22T10:53:46;4.93;;;4.47;;
13969;SDS011;7057;49.984;8.404;2022-07-22T10:56:21;5.37;;;4.87;;
13969;SDS011;7057;49.984;8.404;2022-07-22T10:58:55;5.00;;;4.50;;
13969;SDS011;7057;49.984;8.404;2022-07-22T11:01:33;5.37;;;4.43;;
13969;SDS011;7057;49.984;8.404;2022-07-22T11:04:07;5.60;;;4.57;;
13969;SDS011;7057;49.984;8.404;2022-07-22T11:06:36;5.67;;;5.07;;
13969;SDS011;7057;49.984;8.404;2022-07-22T11:09:04;5.00;;;4.60;;
13969;SDS011;7057;49.984;8.404;2022-07-22T11:11:43;5.17;;;4.50;;
13969;SDS011;7057;49.984;8.404;2022-07-22T11:14:16;5.93;;;4.67;;
13969;SDS011;7057;49.984;8.404;2022-07-22T11:16:45;5.10;;;4.63;;
13969;SDS011;7057;49.984;8.404;2022-07-22T11:19:13;5.37;;;4.43;;
13969;SDS011;7057;49.984;8.404;2022-07-22T11:21:41;5.30;;;4.80;;
13969;SDS011;7057;49.984;8.404;2022-07-22T11:24:08;4.67;;;4.27;;
13969;SDS011;7057;49.984;8.404;2022-07-22T11:26:37;5.30;;;4.37;;
13969;SDS011;7057;49.984;8.404;2022-07-22T11:29:08;5.50;;;4.70;;
13969;SDS011;7057;49.984;8.404;2022-07-22T11:31:36;6.47;;;4.57;;
13969;SDS011;7057;49.984;8.404;2022-07-22T11:34:05;5.13;;;4.63;;
13969;SDS011;7057;49.984;8.404;2022-07-22T11:36:35;4.97;;;4.43;;
13969;SDS011;7057;49.984;8.404;2022-07-22T11:39:04;5.97;;;4.80;;
13969;SDS011;7057;49.984;8.404;2022-07-22T11:41:32;5.33;;;4.40;;
13969;SDS011;7057;49.984;8.404;2022-07-22T11:43:59;4.63;;;4.00;;
13969;SDS011;7057;49.984;8.404;2022-07-22T11:46:28;4.97;;;4.47;;
13969;SDS011;7057;49.984;8.404;2022-07-22T11:49:02;6.20;;;4.67;;
13969;SDS011;7057;49.984;8.404;2022-07-22T11:51:30;5.83;;;4.40;;
13969;SDS011;7057;49.984;8.404;2022-07-22T11:53:58;5.00;;;4.50;;
13969;SDS011;7057;49.984;8.404;2022-07-22T11:56:26;4.67;;;4.27;;
13969;SDS011;7057;49.984;8.404;2022-07-22T11:58:53;5.73;;;4.90;;
13969;SDS011;7057;49.984;8.404;2022-07-22T12:01:23;5.30;;;4.10;;
13969;SDS011;7057;49.984;8.404;2022-07-22T12:03:52;5.90;;;4.97;;
13969;SDS011;7057;49.984;8.404;2022-07-22T12:06:22;5.10;;;4.57;;
13969;SDS011;7057;49.984;8.404;2022-07-22T12:08:51;7.07;;;5.00;;
13969;SDS011;7057;49.984;8.404;2022-07-22T12:11:20;5.50;;;5.00;;
13969;SDS011;7057;49.984;8.404;2022-07-22T12:13:49;5.13;;;4.63;;
13969;SDS011;7057;49.984;8.404;2022-07-22T12:16:18;6.57;;;5.17;;
13969;SDS011;7057;49.984;8.404;2022-07-22T12:18:50;6.80;;;5.07;;
13969;SDS011;7057;49.984;8.404;2022-07-22T12:21:24;5.60;;;5.00;;
13969;SDS011;7057;49.984;8.404;2022-07-22T12:23:53;5.43;;;4.93;;
13969;SDS011;7057;49.984;8.404;2022-07-22T12:26:41;5.03;;;4.53;;
13969;SDS011;7057;49.984;8.404;2022-07-22T12:29:16;5.30;;;4.80;;
13969;SDS011;7057;49.984;8.404;2022-07-22T12:31:46;5.57;;;5.07;;
13969;SDS011;7057;49.984;8.404;2022-07-22T12:34:15;5.23;;;4.73;;
13969;SDS011;7057;49.984;8.404;2022-07-22T12:36:43;6.87;;;5.20;;
13969;SDS011;7057;49.984;8.404;2022-07-22T12:39:12;6.90;;;4.90;;
13969;SDS011;7057;49.984;8.404;2022-07-22T12:41:45;4.97;;;4.53;;
13969;SDS011;7057;49.984;8.404;2022-07-22T12:44:14;5.80;;;4.87;;
13969;SDS011;7057;49.984;8.404;2022-07-22T12:46:46;5.73;;;4.70;;
13969;SDS011;7057;49.984;8.404;2022-07-22T12:49:16;4.60;;;4.20;;
13969;SDS011;7057;49.984;8.404;2022-07-22T12:54:30;5.37;;;4.70;;
13969;SDS011;7057;49.984;8.404;2022-07-22T12:56:58;5.80;;;5.07;;
13969;SDS011;7057;49.984;8.404;2022-07-22T12:59:25;5.43;;;4.87;;
13969;SDS011;7057;49.984;8.404;2022-07-22T13:01:52;5.47;;;4.97;;
13969;SDS011;7057;49.984;8.404;2022-07-22T13:04:20;5.23;;;4.73;;
13969;SDS011;7057;49.984;8.404;2022-07-22T13:06:48;8.03;;;4.00;;
13969;SDS011;7057;49.984;8.404;2022-07-22T13:09:15;5.00;;;4.57;;
13969;SDS011;7057;49.984;8.404;2022-07-22T13:11:42;5.67;;;4.80;;
13969;SDS011;7057;49.984;8.404;2022-07-22T13:14:10;6.13;;;4.90;;
13969;SDS011;7057;49.984;8.404;2022-07-22T13:16:37;5.83;;;5.13;;
13969;SDS011;7057;49.984;8.404;2022-07-22T13:19:04;5.27;;;4.53;;
13969;SDS011;7057;49.984;8.404;2022-07-22T13:21:33;5.13;;;4.60;;
13969;SDS011;7057;49.984;8.404;2022-07-22T13:24:00;5.50;;;4.97;;
13969;SDS011;7057;49.984;8.404;2022-07-22T13:26:27;5.60;;;4.77;;
13969;SDS011;7057;49.984;8.404;2022-07-22T13:28:55;8.30;;;4.53;;
13969;SDS011;7057;49.984;8.404;2022-07-22T13:31:22;5.13;;;4.63;;
13969;SDS011;7057;49.984;8.404;2022-07-22T13:33:49;6.07;;;5.17;;
13969;SDS011;7057;49.984;8.404;2022-07-22T13:36:16;5.63;;;4.90;;
13969;SDS011;7057;49.984;8.404;2022-07-22T13:38:45;5.23;;;4.73;;
13969;SDS011;7057;49.984;8.404;2022-07-22T13:41:12;5.20;;;4.63;;
13969;SDS011;7057;49.984;8.404;2022-07-22T13:43:43;5.50;;;5.00;;
13969;SDS011;7057;49.984;8.404;2022-07-22T13:46:11;5.17;;;4.57;;
13969;SDS011;7057;49.984;8.404;2022-07-22T13:48:38;4.47;;;4.07;;
13969;SDS011;7057;49.984;8.404;2022-07-22T13:51:06;5.40;;;4.93;;
13969;SDS011;7057;49.984;8.404;2022-07-22T13:53:33;4.63;;;4.10;;
13969;SDS011;7057;49.984;8.404;2022-07-22T13:56:02;7.27;;;4.93;;
13969;SDS011;7057;49.984;8.404;2022-07-22T13:58:30;5.13;;;4.60;;
13969;SDS011;7057;49.984;8.404;2022-07-22T14:00:57;5.17;;;4.77;;
13969;SDS011;7057;49.984;8.404;2022-07-22T14:03:24;5.50;;;4.97;;
13969;SDS011;7057;49.984;8.404;2022-07-22T14:05:51;4.97;;;4.43;;
13969;SDS011;7057;49.984;8.404;2022-07-22T14:08:18;5.40;;;4.70;;
13969;SDS011;7057;49.984;8.404;2022-07-22T14:10:46;5.60;;;5.00;;
13969;SDS011;7057;49.984;8.404;2022-07-22T14:13:14;5.73;;;5.10;;
13969;SDS011;7057;49.984;8.404;2022-07-22T14:15:42;4.83;;;4.43;;
13969;SDS011;7057;49.984;8.404;2022-07-22T14:18:09;5.77;;;4.63;;
13969;SDS011;7057;49.984;8.404;2022-07-22T14:20:36;7.10;;;5.77;;
13969;SDS011;7057;49.984;8.404;2022-07-22T14:23:05;5.80;;;4.80;;
13969;SDS011;7057;49.984;8.404;2022-07-22T14:25:35;5.07;;;4.57;;
13969;SDS011;7057;49.984;8.404;2022-07-22T14:28:02;5.10;;;4.60;;
13969;SDS011;7057;49.984;8.404;2022-07-22T14:30:31;4.97;;;4.50;;
13969;SDS011;7057;49.984;8.404;2022-07-22T14:32:58;6.27;;;4.90;;
13969;SDS011;7057;49.984;8.404;2022-07-22T14:35:26;7.10;;;4.90;;
13969;SDS011;7057;49.984;8.404;2022-07-22T14:37:53;7.80;;;4.70;;
13969;SDS011;7057;49.984;8.404;2022-07-22T14:40:21;6.80;;;4.60;;
13969;SDS011;7057;49.984;8.404;2022-07-22T14:42:48;5.17;;;4.77;;
13969;SDS011;7057;49.984;8.404;2022-07-22T14:45:15;5.63;;;4.70;;
13969;SDS011;7057;49.984;8.404;2022-07-22T14:47:43;6.57;;;5.40;;
13969;SDS011;7057;49.984;8.404;2022-07-22T14:50:10;5.00;;;4.50;;
13969;SDS011;7057;49.984;8.404;2022-07-22T14:52:37;5.57;;;4.83;;
13969;SDS011;7057;49.984;8.404;2022-07-22T14:55:05;6.23;;;4.53;;
13969;SDS011;7057;49.984;8.404;2022-07-22T14:57:32;4.70;;;4.27;;
13969;SDS011;7057;49.984;8.404;2022-07-22T14:59:59;5.53;;;4.57;;
13969;SDS011;7057;49.984;8.404;2022-07-22T15:02:26;4.90;;;4.27;;
13969;SDS011;7057;49.984;8.404;2022-07-22T15:04:55;7.57;;;4.70;;
13969;SDS011;7057;49.984;8.404;2022-07-22T15:07:22;5.20;;;4.73;;
13969;SDS011;7057;49.984;8.404;2022-07-22T15:09:49;5.27;;;4.20;;
13969;SDS011;7057;49.984;8.404;2022-07-22T15:12:16;5.30;;;4.80;;